Tylertown, MS

9:32 PM CDT on August 01, 2014 (GMT -0500)
Smithburg Rd (KMSOSYKA2) Elev 300 ft | 31.03 °N, 90.28 °W | Change Station

Current weather conditions updated 2 minutes ago

Overcast
Overcast
72.9 °F
Feels Like 72.9 °F
N
1.0
Wind Variable Wind from NNE
Gusts 1.0 mph

Tomorrow is forecast to be Much Warmer than today. Showers and thunderstorms late.

Today
High -- | Low -- °F
--% Chance of Precip.
Yesterday
High -- | Low -- °F
Precip. -- in
6:17 AM 7:55 PM
Waxing Crescent, 31% visible
Pressure 29.96 in
Visibility 5.0 miles
Clouds Overcast 4900 ft
Dew Point 72 °F
Humidity 97%
Rainfall 0.05 in
Snow Depth Not available.
UV 0 out of 12
Pollen 1.90 out of 12
Air Quality Not available.
Flu Activity Not available.
METAR KMCB 020153Z AUTO 00000KT 5SM BR OVC049 23/22 A2998 RMK AO2 SLP146 T02280217

More Conditions Fewer Conditions

Pressure 29.96 in
Visibility 5.0 miles
Clouds Overcast 4900 ft
Dew Point 72 °F
Humidity 97%
Rainfall 0.05 in
Snow Depth Not available.
UV 0 out of 12
Pollen 1.90 out of 12
Air Quality Not available.
Flu Activity Not available.
METAR KMCB 020153Z AUTO 00000KT 5SM BR OVC049 23/22 A2998 RMK AO2 SLP146 T02280217

More Conditions Fewer Conditions

10-Day Weather Forecast

Almanac

Astronomy

Aug. 01, 2014 Rise Set
Actual Time 6:17 AM CDT 7:55 PM CDT
Civil Twilight 5:51 AM CDT 8:22 PM CDT
Nautical Twilight 5:19 AM CDT 8:53 PM CDT
Astronomical Twilight 4:46 AM CDT 9:26 PM CDT
Moon 11:17 AM CDT (8/1) 11:06 PM CDT (8/1)
Length of Visible Light 14h 31m
Length of Day
13h 38m
Tomorrow will be 1m 25s shorter.
Waxing Crescent, 31% of the Moon is Illuminated
Today
Waxing Crescent
Aug 3
First Quarter
Aug 10
Full
Aug 17
Last Quarter
Aug 25
New

Today's Extremes

State Highs State Lows

Community

WunderPhotos

Upload Photos

1,739,807 photos uploaded!

Nearby

Snow Depth

Station Depth Elevation
No new snow has been reported.

Earthquake Activity

City Distance Mag. Time & Date
No recent earthquake activity has been reported nearby.
Minimum magnitude displayed is 2.5.

Coastal Water Temperatures

Place Temperature
No Stations Reporting

Nearby Weather Stations

Station Location Temp. Dew Point Humidity Wind Precip. Elev Updated Type
Smithburg Rd, Progress, MS 72.9 °F 72 °F 97% NNE  at  1.0 mph 0.00 in / hr 300 ft 9:30 PM CDT Normal
MAGNOLIA, MS 72.5 °F 72 °F 97% NW  at  0.0 mph 0.00 in / hr 354 ft 9:32 PM CDT Rapid Fire
City of McComb, McComb, MS 73.0 °F 71 °F 93% West  at  0.0 mph 0.00 in / hr 456 ft 9:32 PM CDT Rapid Fire
Laurel St., Summit, MS 72.5 °F 71 °F 94% ENE  at  0.0 mph 0.00 in / hr 465 ft 9:23 PM CDT Normal
Pinehurst, McComb, MS 71.8 °F 71 °F 98% East  at  0.0 mph 0.00 in / hr 442 ft 9:31 PM CDT Normal

Show More Stations Show Fewer Stations